sensor_id;sensor_type;location;lat;lon;timestamp;pressure;altitude;pressure_sealevel;temperature;humidity
35291;BME280;21411;50.024;19.220;2023-04-09T00:00:40;99578.96;;;4.75;100.00
35291;BME280;21411;50.024;19.220;2023-04-09T00:03:27;99575.53;;;4.72;100.00
35291;BME280;21411;50.024;19.220;2023-04-09T00:05:54;99573.49;;;4.70;100.00
35291;BME280;21411;50.024;19.220;2023-04-09T00:08:21;99572.34;;;4.68;100.00
35291;BME280;21411;50.024;19.220;2023-04-09T00:10:50;99574.68;;;4.66;100.00
35291;BME280;21411;50.024;19.220;2023-04-09T00:13:17;99573.90;;;4.63;100.00
35291;BME280;21411;50.024;19.220;2023-04-09T00:15:44;99571.70;;;4.60;100.00
35291;BME280;21411;50.024;19.220;2023-04-09T00:18:12;99571.06;;;4.58;100.00
35291;BME280;21411;50.024;19.220;2023-04-09T00:20:39;99574.30;;;4.56;100.00
35291;BME280;21411;50.024;19.220;2023-04-09T00:23:06;99581.54;;;4.55;100.00
35291;BME280;21411;50.024;19.220;2023-04-09T00:25:32;99582.77;;;4.56;100.00
35291;BME280;21411;50.024;19.220;2023-04-09T00:27:59;99585.73;;;4.56;100.00
35291;BME280;21411;50.024;19.220;2023-04-09T00:30:27;99586.54;;;4.59;100.00
35291;BME280;21411;50.024;19.220;2023-04-09T00:32:55;99585.92;;;4.61;100.00
35291;BME280;21411;50.024;19.220;2023-04-09T00:35:22;99592.90;;;4.63;100.00
35291;BME280;21411;50.024;19.220;2023-04-09T00:37:49;99589.59;;;4.62;100.00
35291;BME280;21411;50.024;19.220;2023-04-09T00:40:16;99587.86;;;4.61;100.00
35291;BME280;21411;50.024;19.220;2023-04-09T00:42:42;99586.34;;;4.59;100.00
35291;BME280;21411;50.024;19.220;2023-04-09T00:45:09;99586.11;;;4.55;100.00
35291;BME280;21411;50.024;19.220;2023-04-09T00:47:36;99588.30;;;4.53;100.00
35291;BME280;21411;50.024;19.220;2023-04-09T00:50:03;99590.06;;;4.53;100.00
35291;BME280;21411;50.024;19.220;2023-04-09T00:52:29;99590.80;;;4.52;100.00
35291;BME280;21411;50.024;19.220;2023-04-09T00:54:59;99593.11;;;4.52;100.00
35291;BME280;21411;50.024;19.220;2023-04-09T00:57:26;99595.40;;;4.51;100.00
35291;BME280;21411;50.024;19.220;2023-04-09T00:59:54;99593.08;;;4.52;100.00
35291;BME280;21411;50.024;19.220;2023-04-09T01:02:20;99591.53;;;4.51;100.00
35291;BME280;21411;50.024;19.220;2023-04-09T01:04:48;99589.97;;;4.51;100.00
35291;BME280;21411;50.024;19.220;2023-04-09T01:09:51;99586.77;;;4.52;100.00
35291;BME280;21411;50.024;19.220;2023-04-09T01:15:20;99590.95;;;4.53;100.00
35291;BME280;21411;50.024;19.220;2023-04-09T01:17:53;99593.15;;;4.56;100.00
35291;BME280;21411;50.024;19.220;2023-04-09T01:20:41;99585.91;;;4.57;100.00
35291;BME280;21411;50.024;19.220;2023-04-09T01:25:44;99589.73;;;4.57;100.00
35291;BME280;21411;50.024;19.220;2023-04-09T01:28:21;99587.14;;;4.56;100.00
35291;BME280;21411;50.024;19.220;2023-04-09T01:30:52;99586.41;;;4.52;100.00
35291;BME280;21411;50.024;19.220;2023-04-09T01:33:19;99586.05;;;4.46;100.00
35291;BME280;21411;50.024;19.220;2023-04-09T01:35:48;99588.66;;;4.42;100.00
35291;BME280;21411;50.024;19.220;2023-04-09T01:38:17;99587.93;;;4.37;100.00
35291;BME280;21411;50.024;19.220;2023-04-09T01:40:45;99587.02;;;4.33;100.00
35291;BME280;21411;50.024;19.220;2023-04-09T01:43:12;99588.32;;;4.31;100.00
35291;BME280;21411;50.024;19.220;2023-04-09T01:45:40;99589.42;;;4.29;100.00
35291;BME280;21411;50.024;19.220;2023-04-09T01:48:08;99590.32;;;4.29;100.00
35291;BME280;21411;50.024;19.220;2023-04-09T01:50:36;99593.52;;;4.28;100.00
35291;BME280;21411;50.024;19.220;2023-04-09T01:53:02;99593.40;;;4.26;100.00
35291;BME280;21411;50.024;19.220;2023-04-09T01:55:29;99596.98;;;4.24;100.00
35291;BME280;21411;50.024;19.220;2023-04-09T01:57:55;99597.73;;;4.23;100.00
35291;BME280;21411;50.024;19.220;2023-04-09T02:00:46;99597.58;;;4.22;100.00
35291;BME280;21411;50.024;19.220;2023-04-09T02:03:34;99596.34;;;4.22;100.00
35291;BME280;21411;50.024;19.220;2023-04-09T02:06:15;99593.39;;;4.21;100.00
35291;BME280;21411;50.024;19.220;2023-04-09T02:08:46;99591.97;;;4.22;100.00
35291;BME280;21411;50.024;19.220;2023-04-09T02:11:14;99589.08;;;4.23;100.00
35291;BME280;21411;50.024;19.220;2023-04-09T02:13:41;99590.80;;;4.25;100.00
35291;BME280;21411;50.024;19.220;2023-04-09T02:16:10;99588.17;;;4.24;100.00
35291;BME280;21411;50.024;19.220;2023-04-09T02:18:39;99585.02;;;4.24;100.00
35291;BME280;21411;50.024;19.220;2023-04-09T02:21:06;99584.16;;;4.23;100.00
35291;BME280;21411;50.024;19.220;2023-04-09T02:23:32;99586.30;;;4.22;100.00
35291;BME280;21411;50.024;19.220;2023-04-09T02:26:00;99587.21;;;4.21;100.00
35291;BME280;21411;50.024;19.220;2023-04-09T02:28:26;99585.36;;;4.19;100.00
35291;BME280;21411;50.024;19.220;2023-04-09T02:30:53;99583.62;;;4.18;100.00
35291;BME280;21411;50.024;19.220;2023-04-09T02:33:20;99581.35;;;4.18;100.00
35291;BME280;21411;50.024;19.220;2023-04-09T02:35:46;99581.34;;;4.17;100.00
35291;BME280;21411;50.024;19.220;2023-04-09T02:38:13;99581.20;;;4.17;100.00
35291;BME280;21411;50.024;19.220;2023-04-09T02:40:41;99585.30;;;4.15;100.00
35291;BME280;21411;50.024;19.220;2023-04-09T02:43:08;99585.91;;;4.12;100.00
35291;BME280;21411;50.024;19.220;2023-04-09T02:45:35;99586.80;;;4.12;100.00
35291;BME280;21411;50.024;19.220;2023-04-09T02:48:02;99587.52;;;4.12;100.00
35291;BME280;21411;50.024;19.220;2023-04-09T02:50:28;99590.14;;;4.12;100.00
35291;BME280;21411;50.024;19.220;2023-04-09T02:52:55;99590.13;;;4.12;100.00
35291;BME280;21411;50.024;19.220;2023-04-09T02:55:21;99589.77;;;4.12;100.00
35291;BME280;21411;50.024;19.220;2023-04-09T02:57:48;99587.51;;;4.12;100.00
35291;BME280;21411;50.024;19.220;2023-04-09T03:00:14;99588.22;;;4.11;100.00
35291;BME280;21411;50.024;19.220;2023-04-09T03:02:41;99591.03;;;4.12;100.00
35291;BME280;21411;50.024;19.220;2023-04-09T03:05:08;99590.51;;;4.12;100.00
35291;BME280;21411;50.024;19.220;2023-04-09T03:07:34;99587.51;;;4.12;100.00
35291;BME280;21411;50.024;19.220;2023-04-09T03:10:01;99589.45;;;4.12;100.00
35291;BME280;21411;50.024;19.220;2023-04-09T03:12:27;99588.73;;;4.12;100.00
35291;BME280;21411;50.024;19.220;2023-04-09T03:14:54;99594.85;;;4.13;100.00
35291;BME280;21411;50.024;19.220;2023-04-09T03:17:20;99593.39;;;4.15;100.00
35291;BME280;21411;50.024;19.220;2023-04-09T03:19:47;99597.93;;;4.16;100.00
35291;BME280;21411;50.024;19.220;2023-04-09T03:22:13;99601.21;;;4.18;100.00
35291;BME280;21411;50.024;19.220;2023-04-09T03:24:40;99602.40;;;4.19;100.00
35291;BME280;21411;50.024;19.220;2023-04-09T03:27:07;99604.95;;;4.22;100.00
35291;BME280;21411;50.024;19.220;2023-04-09T03:29:33;99602.24;;;4.25;100.00
35291;BME280;21411;50.024;19.220;2023-04-09T03:31:59;99604.47;;;4.27;100.00
35291;BME280;21411;50.024;19.220;2023-04-09T03:34:26;99598.42;;;4.28;100.00
35291;BME280;21411;50.024;19.220;2023-04-09T03:36:52;99596.11;;;4.30;100.00
35291;BME280;21411;50.024;19.220;2023-04-09T03:39:19;99594.85;;;4.30;100.00
35291;BME280;21411;50.024;19.220;2023-04-09T03:41:46;99594.64;;;4.31;100.00
35291;BME280;21411;50.024;19.220;2023-04-09T03:44:12;99594.79;;;4.33;100.00
35291;BME280;21411;50.024;19.220;2023-04-09T03:46:39;99595.66;;;4.32;100.00
35291;BME280;21411;50.024;19.220;2023-04-09T03:49:05;99599.36;;;4.32;100.00
35291;BME280;21411;50.024;19.220;2023-04-09T03:51:32;99596.86;;;4.33;100.00
35291;BME280;21411;50.024;19.220;2023-04-09T03:53:59;99599.06;;;4.36;100.00
35291;BME280;21411;50.024;19.220;2023-04-09T03:56:25;99596.02;;;4.38;100.00
35291;BME280;21411;50.024;19.220;2023-04-09T03:58:52;99595.96;;;4.39;100.00
35291;BME280;21411;50.024;19.220;2023-04-09T04:01:18;99599.61;;;4.41;100.00
35291;BME280;21411;50.024;19.220;2023-04-09T04:03:45;99599.57;;;4.42;100.00
35291;BME280;21411;50.024;19.220;2023-04-09T04:06:12;99597.08;;;4.43;100.00
35291;BME280;21411;50.024;19.220;2023-04-09T04:08:38;99599.55;;;4.43;100.00
35291;BME280;21411;50.024;19.220;2023-04-09T04:11:05;99602.55;;;4.43;100.00
35291;BME280;21411;50.024;19.220;2023-04-09T04:13:31;99602.00;;;4.43;100.00
35291;BME280;21411;50.024;19.220;2023-04-09T04:15:58;99604.98;;;4.44;100.00
35291;BME280;21411;50.024;19.220;2023-04-09T04:18:24;99606.20;;;4.44;100.00
35291;BME280;21411;50.024;19.220;2023-04-09T04:20:51;99606.19;;;4.44;100.00
35291;BME280;21411;50.024;19.220;2023-04-09T04:23:17;99605.51;;;4.44;100.00
35291;BME280;21411;50.024;19.220;2023-04-09T04:25:44;99606.42;;;4.43;100.00
35291;BME280;21411;50.024;19.220;2023-04-09T04:28:10;99608.34;;;4.43;100.00
35291;BME280;21411;50.024;19.220;2023-04-09T04:30:40;99612.15;;;4.45;100.00
35291;BME280;21411;50.024;19.220;2023-04-09T04:33:07;99615.48;;;4.46;100.00
35291;BME280;21411;50.024;19.220;2023-04-09T04:35:33;99616.81;;;4.48;100.00
35291;BME280;21411;50.024;19.220;2023-04-09T04:38:00;99617.06;;;4.51;100.00
35291;BME280;21411;50.024;19.220;2023-04-09T04:40:26;99617.84;;;4.54;100.00
35291;BME280;21411;50.024;19.220;2023-04-09T04:42:53;99621.27;;;4.56;100.00
35291;BME280;21411;50.024;19.220;2023-04-09T04:45:20;99622.09;;;4.58;100.00
35291;BME280;21411;50.024;19.220;2023-04-09T04:47:46;99626.77;;;4.60;100.00
35291;BME280;21411;50.024;19.220;2023-04-09T04:50:12;99621.28;;;4.61;100.00
35291;BME280;21411;50.024;19.220;2023-04-09T04:52:39;99623.80;;;4.65;100.00
35291;BME280;21411;50.024;19.220;2023-04-09T04:55:06;99625.23;;;4.70;100.00
35291;BME280;21411;50.024;19.220;2023-04-09T04:57:32;99625.80;;;4.74;100.00
35291;BME280;21411;50.024;19.220;2023-04-09T04:59:59;99624.88;;;4.80;100.00
35291;BME280;21411;50.024;19.220;2023-04-09T05:02:25;99620.99;;;4.87;100.00
35291;BME280;21411;50.024;19.220;2023-04-09T05:04:52;99623.26;;;4.93;100.00
35291;BME280;21411;50.024;19.220;2023-04-09T05:07:18;99627.45;;;4.99;100.00
35291;BME280;21411;50.024;19.220;2023-04-09T05:09:45;99623.40;;;5.04;100.00
35291;BME280;21411;50.024;19.220;2023-04-09T05:12:12;99619.67;;;5.10;100.00
35291;BME280;21411;50.024;19.220;2023-04-09T05:14:40;99619.48;;;5.15;100.00
35291;BME280;21411;50.024;19.220;2023-04-09T05:17:07;99621.61;;;5.20;100.00
35291;BME280;21411;50.024;19.220;2023-04-09T05:19:33;99624.21;;;5.26;100.00
35291;BME280;21411;50.024;19.220;2023-04-09T05:22:00;99625.03;;;5.33;100.00
35291;BME280;21411;50.024;19.220;2023-04-09T05:24:26;99627.98;;;5.39;100.00
35291;BME280;21411;50.024;19.220;2023-04-09T05:26:53;99629.54;;;5.45;100.00
35291;BME280;21411;50.024;19.220;2023-04-09T05:29:19;99630.27;;;5.49;100.00
35291;BME280;21411;50.024;19.220;2023-04-09T05:31:46;99635.58;;;5.54;100.00
35291;BME280;21411;50.024;19.220;2023-04-09T05:34:12;99632.23;;;5.58;100.00
35291;BME280;21411;50.024;19.220;2023-04-09T05:36:39;99634.24;;;5.66;100.00
35291;BME280;21411;50.024;19.220;2023-04-09T05:39:05;99633.67;;;5.72;100.00
35291;BME280;21411;50.024;19.220;2023-04-09T05:41:32;99634.44;;;5.80;100.00
35291;BME280;21411;50.024;19.220;2023-04-09T05:43:58;99632.83;;;5.85;100.00
35291;BME280;21411;50.024;19.220;2023-04-09T05:46:25;99632.78;;;5.91;100.00
35291;BME280;21411;50.024;19.220;2023-04-09T05:48:52;99635.32;;;5.99;100.00
35291;BME280;21411;50.024;19.220;2023-04-09T05:51:18;99636.81;;;6.11;100.00
35291;BME280;21411;50.024;19.220;2023-04-09T05:53:45;99633.59;;;6.22;100.00
35291;BME280;21411;50.024;19.220;2023-04-09T05:56:13;99633.97;;;6.39;100.00
35291;BME280;21411;50.024;19.220;2023-04-09T05:58:40;99632.50;;;6.62;100.00
35291;BME280;21411;50.024;19.220;2023-04-09T06:01:07;99629.69;;;6.92;100.00
35291;BME280;21411;50.024;19.220;2023-04-09T06:03:33;99628.76;;;7.35;100.00
35291;BME280;21411;50.024;19.220;2023-04-09T06:06:00;99632.57;;;7.65;100.00
35291;BME280;21411;50.024;19.220;2023-04-09T06:08:27;99633.85;;;8.06;100.00
35291;BME280;21411;50.024;19.220;2023-04-09T06:10:53;99632.98;;;8.37;100.00
35291;BME280;21411;50.024;19.220;2023-04-09T06:13:20;99629.73;;;8.49;100.00
35291;BME280;21411;50.024;19.220;2023-04-09T06:15:47;99637.98;;;8.62;100.00
35291;BME280;21411;50.024;19.220;2023-04-09T06:18:13;99641.35;;;8.73;100.00
35291;BME280;21411;50.024;19.220;2023-04-09T06:20:40;99645.59;;;8.76;100.00
35291;BME280;21411;50.024;19.220;2023-04-09T06:23:06;99643.73;;;8.78;100.00
35291;BME280;21411;50.024;19.220;2023-04-09T06:25:34;99646.34;;;8.87;100.00
35291;BME280;21411;50.024;19.220;2023-04-09T06:28:01;99648.62;;;8.91;100.00
35291;BME280;21411;50.024;19.220;2023-04-09T06:30:28;99654.21;;;8.92;100.00
35291;BME280;21411;50.024;19.220;2023-04-09T06:32:56;99653.50;;;8.96;100.00
35291;BME280;21411;50.024;19.220;2023-04-09T06:35:22;99650.83;;;9.03;100.00
35291;BME280;21411;50.024;19.220;2023-04-09T06:37:49;99647.08;;;9.08;100.00
35291;BME280;21411;50.024;19.220;2023-04-09T06:40:16;99651.25;;;9.09;100.00
35291;BME280;21411;50.024;19.220;2023-04-09T06:42:42;99645.60;;;9.12;100.00
35291;BME280;21411;50.024;19.220;2023-04-09T06:45:09;99648.52;;;9.17;100.00
35291;BME280;21411;50.024;19.220;2023-04-09T06:47:35;99652.60;;;9.28;100.00
35291;BME280;21411;50.024;19.220;2023-04-09T06:50:02;99649.96;;;9.38;100.00
35291;BME280;21411;50.024;19.220;2023-04-09T06:52:29;99649.39;;;9.46;100.00
35291;BME280;21411;50.024;19.220;2023-04-09T06:54:56;99653.28;;;9.53;100.00
35291;BME280;21411;50.024;19.220;2023-04-09T06:57:22;99653.90;;;9.58;100.00
35291;BME280;21411;50.024;19.220;2023-04-09T06:59:49;99652.30;;;9.64;100.00
35291;BME280;21411;50.024;19.220;2023-04-09T07:02:15;99656.60;;;9.67;100.00
35291;BME280;21411;50.024;19.220;2023-04-09T07:04:42;99657.88;;;9.73;100.00
35291;BME280;21411;50.024;19.220;2023-04-09T07:07:08;99656.64;;;9.80;100.00
35291;BME280;21411;50.024;19.220;2023-04-09T07:09:35;99654.52;;;9.86;100.00
35291;BME280;21411;50.024;19.220;2023-04-09T07:12:02;99656.93;;;9.91;100.00
35291;BME280;21411;50.024;19.220;2023-04-09T07:14:29;99652.90;;;10.00;100.00
35291;BME280;21411;50.024;19.220;2023-04-09T07:16:56;99656.94;;;10.14;100.00
35291;BME280;21411;50.024;19.220;2023-04-09T07:19:22;99654.70;;;10.26;100.00
35291;BME280;21411;50.024;19.220;2023-04-09T07:21:49;99655.93;;;10.39;100.00
35291;BME280;21411;50.024;19.220;2023-04-09T07:24:16;99654.15;;;10.55;100.00
35291;BME280;21411;50.024;19.220;2023-04-09T07:26:42;99652.59;;;10.73;100.00
35291;BME280;21411;50.024;19.220;2023-04-09T07:29:09;99653.77;;;10.96;100.00
35291;BME280;21411;50.024;19.220;2023-04-09T07:31:36;99654.27;;;11.24;100.00
35291;BME280;21411;50.024;19.220;2023-04-09T07:34:05;99654.06;;;11.51;100.00
35291;BME280;21411;50.024;19.220;2023-04-09T07:36:32;99653.30;;;11.70;100.00
35291;BME280;21411;50.024;19.220;2023-04-09T07:38:58;99651.10;;;11.71;100.00
35291;BME280;21411;50.024;19.220;2023-04-09T07:41:25;99651.63;;;11.83;100.00
35291;BME280;21411;50.024;19.220;2023-04-09T07:43:52;99658.64;;;11.91;100.00
35291;BME280;21411;50.024;19.220;2023-04-09T07:46:19;99659.52;;;12.05;100.00
35291;BME280;21411;50.024;19.220;2023-04-09T07:48:46;99662.08;;;12.27;100.00
35291;BME280;21411;50.024;19.220;2023-04-09T07:51:15;99658.73;;;12.57;100.00
35291;BME280;21411;50.024;19.220;2023-04-09T07:53:41;99658.38;;;12.82;100.00
35291;BME280;21411;50.024;19.220;2023-04-09T07:56:08;99663.29;;;12.78;100.00
35291;BME280;21411;50.024;19.220;2023-04-09T07:58:35;99665.58;;;12.36;100.00
35291;BME280;21411;50.024;19.220;2023-04-09T08:01:03;99669.77;;;11.92;100.00
35291;BME280;21411;50.024;19.220;2023-04-09T08:03:30;99666.20;;;11.63;100.00
35291;BME280;21411;50.024;19.220;2023-04-09T08:05:56;99666.30;;;11.43;100.00
35291;BME280;21411;50.024;19.220;2023-04-09T08:08:23;99663.96;;;11.29;100.00
35291;BME280;21411;50.024;19.220;2023-04-09T08:10:49;99664.81;;;11.32;100.00
35291;BME280;21411;50.024;19.220;2023-04-09T08:13:17;99662.91;;;11.43;100.00
35291;BME280;21411;50.024;19.220;2023-04-09T08:15:43;99665.23;;;11.50;100.00
35291;BME280;21411;50.024;19.220;2023-04-09T08:18:10;99663.29;;;11.58;100.00
35291;BME280;21411;50.024;19.220;2023-04-09T08:20:36;99665.15;;;11.68;100.00
35291;BME280;21411;50.024;19.220;2023-04-09T08:23:10;99667.09;;;11.80;100.00
35291;BME280;21411;50.024;19.220;2023-04-09T08:25:37;99667.30;;;11.80;100.00
35291;BME280;21411;50.024;19.220;2023-04-09T08:28:04;99671.59;;;11.82;100.00
35291;BME280;21411;50.024;19.220;2023-04-09T08:30:30;99674.37;;;11.90;100.00
35291;BME280;21411;50.024;19.220;2023-04-09T08:33:00;99676.02;;;11.98;100.00
35291;BME280;21411;50.024;19.220;2023-04-09T08:35:29;99678.25;;;11.99;100.00
35291;BME280;21411;50.024;19.220;2023-04-09T08:37:56;99681.80;;;12.05;100.00
35291;BME280;21411;50.024;19.220;2023-04-09T08:40:22;99677.84;;;12.26;100.00
35291;BME280;21411;50.024;19.220;2023-04-09T08:42:52;99677.91;;;12.36;100.00
35291;BME280;21411;50.024;19.220;2023-04-09T08:45:21;99675.73;;;12.51;100.00
35291;BME280;21411;50.024;19.220;2023-04-09T08:47:49;99679.96;;;12.74;100.00
35291;BME280;21411;50.024;19.220;2023-04-09T08:50:16;99679.42;;;12.92;100.00
35291;BME280;21411;50.024;19.220;2023-04-09T08:52:45;99678.79;;;13.13;100.00
35291;BME280;21411;50.024;19.220;2023-04-09T08:55:13;99673.95;;;13.35;100.00
35291;BME280;21411;50.024;19.220;2023-04-09T08:57:40;99672.76;;;13.53;100.00
35291;BME280;21411;50.024;19.220;2023-04-09T09:00:07;99669.20;;;13.66;100.00
35291;BME280;21411;50.024;19.220;2023-04-09T09:02:34;99667.65;;;13.67;100.00
35291;BME280;21411;50.024;19.220;2023-04-09T09:05:01;99669.55;;;13.81;100.00
35291;BME280;21411;50.024;19.220;2023-04-09T09:07:27;99670.38;;;14.03;100.00
35291;BME280;21411;50.024;19.220;2023-04-09T09:10:00;99667.34;;;14.38;100.00
35291;BME280;21411;50.024;19.220;2023-04-09T09:12:35;99665.44;;;14.74;100.00
35291;BME280;21411;50.024;19.220;2023-04-09T09:15:02;99662.33;;;14.97;100.00
35291;BME280;21411;50.024;19.220;2023-04-09T09:17:29;99662.05;;;15.18;100.00
35291;BME280;21411;50.024;19.220;2023-04-09T09:19:57;99663.35;;;14.97;100.00
35291;BME280;21411;50.024;19.220;2023-04-09T09:22:24;99664.60;;;14.64;100.00
35291;BME280;21411;50.024;19.220;2023-04-09T09:24:51;99660.13;;;14.51;100.00
35291;BME280;21411;50.024;19.220;2023-04-09T09:27:35;99657.55;;;14.44;100.00
35291;BME280;21411;50.024;19.220;2023-04-09T09:30:02;99660.44;;;14.39;100.00
35291;BME280;21411;50.024;19.220;2023-04-09T09:32:31;99663.75;;;14.28;100.00
35291;BME280;21411;50.024;19.220;2023-04-09T09:35:01;99660.91;;;14.30;100.00
35291;BME280;21411;50.024;19.220;2023-04-09T09:37:29;99659.09;;;14.46;100.00
35291;BME280;21411;50.024;19.220;2023-04-09T09:39:57;99658.50;;;14.72;100.00
35291;BME280;21411;50.024;19.220;2023-04-09T09:42:23;99659.89;;;14.89;100.00
35291;BME280;21411;50.024;19.220;2023-04-09T09:44:52;99663.80;;;14.77;100.00
35291;BME280;21411;50.024;19.220;2023-04-09T09:47:20;99662.58;;;14.59;100.00
35291;BME280;21411;50.024;19.220;2023-04-09T09:49:48;99659.64;;;14.43;100.00
35291;BME280;21411;50.024;19.220;2023-04-09T09:52:20;99659.98;;;14.43;100.00
35291;BME280;21411;50.024;19.220;2023-04-09T09:54:50;99655.48;;;14.46;100.00
35291;BME280;21411;50.024;19.220;2023-04-09T09:57:19;99654.42;;;14.38;100.00
35291;BME280;21411;50.024;19.220;2023-04-09T09:59:53;99654.65;;;14.15;100.00
35291;BME280;21411;50.024;19.220;2023-04-09T10:02:24;99650.85;;;14.03;100.00
35291;BME280;21411;50.024;19.220;2023-04-09T10:04:59;99650.02;;;13.82;100.00
35291;BME280;21411;50.024;19.220;2023-04-09T10:07:26;99644.96;;;13.68;100.00
35291;BME280;21411;50.024;19.220;2023-04-09T10:09:55;99650.00;;;13.49;100.00
35291;BME280;21411;50.024;19.220;2023-04-09T10:12:24;99652.84;;;13.23;100.00
35291;BME280;21411;50.024;19.220;2023-04-09T10:14:54;99653.15;;;13.12;100.00
35291;BME280;21411;50.024;19.220;2023-04-09T10:17:21;99652.58;;;13.05;100.00
35291;BME280;21411;50.024;19.220;2023-04-09T10:20:06;99654.14;;;12.92;100.00
35291;BME280;21411;50.024;19.220;2023-04-09T10:22:36;99655.63;;;12.75;100.00
35291;BME280;21411;50.024;19.220;2023-04-09T10:25:04;99654.14;;;12.62;100.00
35291;BME280;21411;50.024;19.220;2023-04-09T10:27:31;99648.14;;;12.50;100.00
35291;BME280;21411;50.024;19.220;2023-04-09T10:29:58;99645.55;;;12.43;100.00
35291;BME280;21411;50.024;19.220;2023-04-09T10:32:33;99643.58;;;12.38;100.00
35291;BME280;21411;50.024;19.220;2023-04-09T10:35:02;99643.17;;;12.36;100.00
35291;BME280;21411;50.024;19.220;2023-04-09T10:37:29;99643.05;;;12.32;100.00
35291;BME280;21411;50.024;19.220;2023-04-09T10:39:55;99645.42;;;12.25;100.00
35291;BME280;21411;50.024;19.220;2023-04-09T10:42:28;99643.39;;;12.21;100.00
35291;BME280;21411;50.024;19.220;2023-04-09T10:45:09;99639.39;;;12.17;100.00
35291;BME280;21411;50.024;19.220;2023-04-09T10:47:41;99640.39;;;12.12;100.00
35291;BME280;21411;50.024;19.220;2023-04-09T10:50:25;99641.67;;;12.06;100.00
35291;BME280;21411;50.024;19.220;2023-04-09T10:52:54;99637.89;;;12.01;100.00
35291;BME280;21411;50.024;19.220;2023-04-09T10:55:37;99637.09;;;11.99;100.00
35291;BME280;21411;50.024;19.220;2023-04-09T10:58:05;99636.55;;;11.99;100.00
35291;BME280;21411;50.024;19.220;2023-04-09T11:00:35;99632.30;;;11.99;100.00
35291;BME280;21411;50.024;19.220;2023-04-09T11:05:54;99633.64;;;12.00;100.00
35291;BME280;21411;50.024;19.220;2023-04-09T11:08:21;99632.90;;;12.06;100.00
35291;BME280;21411;50.024;19.220;2023-04-09T11:10:48;99631.54;;;12.14;100.00
35291;BME280;21411;50.024;19.220;2023-04-09T11:13:17;99632.08;;;12.23;100.00
35291;BME280;21411;50.024;19.220;2023-04-09T11:15:46;99633.80;;;12.32;100.00
35291;BME280;21411;50.024;19.220;2023-04-09T11:18:26;99635.88;;;12.41;100.00
35291;BME280;21411;50.024;19.220;2023-04-09T11:20:55;99640.16;;;12.46;100.00
35291;BME280;21411;50.024;19.220;2023-04-09T11:23:22;99638.52;;;12.55;100.00
35291;BME280;21411;50.024;19.220;2023-04-09T11:25:50;99637.27;;;12.64;100.00
35291;BME280;21411;50.024;19.220;2023-04-09T11:28:18;99636.63;;;12.76;100.00
35291;BME280;21411;50.024;19.220;2023-04-09T11:30:45;99635.55;;;12.87;100.00
35291;BME280;21411;50.024;19.220;2023-04-09T11:33:12;99632.84;;;13.09;100.00
35291;BME280;21411;50.024;19.220;2023-04-09T11:35:39;99632.05;;;13.27;100.00
35291;BME280;21411;50.024;19.220;2023-04-09T11:38:07;99631.13;;;13.38;100.00
35291;BME280;21411;50.024;19.220;2023-04-09T11:40:35;99632.64;;;13.47;100.00
35291;BME280;21411;50.024;19.220;2023-04-09T11:43:02;99632.45;;;13.52;100.00
35291;BME280;21411;50.024;19.220;2023-04-09T11:45:29;99631.27;;;13.64;100.00
35291;BME280;21411;50.024;19.220;2023-04-09T11:47:57;99630.02;;;13.72;100.00
35291;BME280;21411;50.024;19.220;2023-04-09T11:50:24;99628.80;;;13.71;100.00
35291;BME280;21411;50.024;19.220;2023-04-09T11:52:50;99628.46;;;13.76;100.00
35291;BME280;21411;50.024;19.220;2023-04-09T11:55:27;99627.98;;;13.88;100.00
35291;BME280;21411;50.024;19.220;2023-04-09T11:57:59;99630.05;;;13.97;100.00
35291;BME280;21411;50.024;19.220;2023-04-09T12:00:26;99629.84;;;14.02;100.00
35291;BME280;21411;50.024;19.220;2023-04-09T12:03:01;99629.09;;;14.02;100.00
35291;BME280;21411;50.024;19.220;2023-04-09T12:05:30;99630.14;;;14.03;100.00
35291;BME280;21411;50.024;19.220;2023-04-09T12:07:59;99632.58;;;14.09;100.00
35291;BME280;21411;50.024;19.220;2023-04-09T12:10:37;99631.77;;;14.22;100.00
35291;BME280;21411;50.024;19.220;2023-04-09T12:13:08;99632.77;;;14.36;100.00
35291;BME280;21411;50.024;19.220;2023-04-09T12:15:40;99630.67;;;14.58;100.00
35291;BME280;21411;50.024;19.220;2023-04-09T12:18:12;99627.48;;;14.72;100.00
35291;BME280;21411;50.024;19.220;2023-04-09T12:20:40;99622.70;;;14.72;100.00
35291;BME280;21411;50.024;19.220;2023-04-09T12:23:09;99622.72;;;14.59;100.00
35291;BME280;21411;50.024;19.220;2023-04-09T12:25:40;99624.10;;;14.53;100.00
35291;BME280;21411;50.024;19.220;2023-04-09T12:28:10;99622.77;;;14.56;100.00
35291;BME280;21411;50.024;19.220;2023-04-09T12:30:36;99622.42;;;14.68;100.00
35291;BME280;21411;50.024;19.220;2023-04-09T12:33:04;99628.23;;;14.82;100.00
35291;BME280;21411;50.024;19.220;2023-04-09T12:35:30;99629.02;;;14.90;100.00
35291;BME280;21411;50.024;19.220;2023-04-09T12:37:57;99628.67;;;14.90;100.00
35291;BME280;21411;50.024;19.220;2023-04-09T12:40:24;99626.80;;;14.82;100.00
35291;BME280;21411;50.024;19.220;2023-04-09T12:42:51;99624.84;;;14.69;100.00
35291;BME280;21411;50.024;19.220;2023-04-09T12:45:18;99625.41;;;14.69;100.00
35291;BME280;21411;50.024;19.220;2023-04-09T12:47:45;99625.21;;;14.72;100.00
35291;BME280;21411;50.024;19.220;2023-04-09T12:50:13;99619.51;;;14.64;100.00
35291;BME280;21411;50.024;19.220;2023-04-09T12:52:40;99616.25;;;14.62;100.00
35291;BME280;21411;50.024;19.220;2023-04-09T12:55:07;99614.30;;;14.71;100.00
35291;BME280;21411;50.024;19.220;2023-04-09T12:57:36;99617.99;;;14.72;100.00
35291;BME280;21411;50.024;19.220;2023-04-09T13:00:03;99619.61;;;14.63;100.00